Time;durP1;ratioP1;P1;durP2;ratioP2;P2;SDS_P1;SDS_P2;PMS_P1;PMS_P2;Temp;Humidity;BMP_temperature;BMP_pressure;BME280_temperature;BME280_humidity;BME280_pressure;Samples;Min_cycle;Max_cycle;Signal;HPM_P1;HPM_P2
2024/03/27 00:02:17;;;;;;;2.53;1.00;;;10.90;99.90;;;;;;6146424;23;20009;-75
2024/03/27 00:04:43;;;;;;;3.38;0.88;;;10.90;99.90;;;;;;6113917;23;20005;-76
2024/03/27 00:07:10;;;;;;;3.63;0.82;;;10.80;99.90;;;;;;6090775;23;20005;-76
2024/03/27 00:09:37;;;;;;;1.88;0.75;;;10.80;99.90;;;;;;6139424;23;20322;-76
2024/03/27 00:12:03;;;;;;;2.22;0.88;;;10.80;99.90;;;;;;6138228;23;20020;-76
2024/03/27 00:14:30;;;;;;;2.15;1.00;;;10.80;99.90;;;;;;6138869;23;20322;-76
2024/03/27 00:16:56;;;;;;;2.83;1.20;;;10.80;99.90;;;;;;6149642;23;20005;-76
2024/03/27 00:19:23;;;;;;;2.58;1.25;;;10.80;99.90;;;;;;6114086;23;20035;-76
2024/03/27 00:21:49;;;;;;;3.30;1.27;;;10.80;99.90;;;;;;6090712;23;20013;-76
2024/03/27 00:24:16;;;;;;;2.88;1.40;;;10.80;99.90;;;;;;6090010;23;20469;-76
2024/03/27 00:26:42;;;;;;;2.70;1.35;;;10.80;99.90;;;;;;6175443;23;19997;-76
2024/03/27 00:29:08;;;;;;;2.60;1.17;;;10.80;99.90;;;;;;6114206;23;20422;-76
2024/03/27 00:31:35;;;;;;;2.72;1.08;;;10.80;99.90;;;;;;6138380;23;20469;-76
2024/03/27 00:34:01;;;;;;;2.28;0.85;;;10.80;99.90;;;;;;6175785;23;20322;-76
2024/03/27 00:36:28;;;;;;;4.40;1.25;;;10.70;99.90;;;;;;6148930;23;20005;-76
2024/03/27 00:38:54;;;;;;;3.10;1.15;;;10.70;99.90;;;;;;6149423;23;20532;-76
2024/03/27 00:41:20;;;;;;;2.58;0.93;;;10.70;99.90;;;;;;6139148;23;20013;-76
2024/03/27 00:43:47;;;;;;;2.78;0.80;;;10.70;99.90;;;;;;6172644;23;20023;-76
2024/03/27 00:46:13;;;;;;;2.03;1.00;;;10.70;99.90;;;;;;6114880;23;20021;-76
2024/03/27 00:48:39;;;;;;;1.63;0.77;;;10.70;99.90;;;;;;6091381;23;20040;-76
2024/03/27 00:51:06;;;;;;;2.15;1.02;;;10.70;99.90;;;;;;6090845;23;20012;-75
2024/03/27 00:53:33;;;;;;;2.63;0.90;;;10.70;99.90;;;;;;6090130;23;20001;-76
2024/03/27 00:56:01;;;;;;;2.53;1.20;;;10.60;99.90;;;;;;6176589;23;20004;-76
2024/03/27 00:58:28;;;;;;;2.92;1.30;;;10.60;99.90;;;;;;6139253;23;20440;-75
2024/03/27 01:00:55;;;;;;;2.90;1.10;;;10.60;99.90;;;;;;6125058;23;20001;-76
2024/03/27 01:03:26;;;;;;;3.05;1.00;;;10.60;99.90;;;;;;6138127;23;20012;-76
2024/03/27 01:05:52;;;;;;;2.90;1.05;;;10.50;99.90;;;;;;6175645;23;20287;-76
2024/03/27 01:08:20;;;;;;;2.38;0.90;;;10.50;99.90;;;;;;6149584;23;20001;-76
2024/03/27 01:10:47;;;;;;;3.17;1.55;;;10.50;99.90;;;;;;6124881;23;20005;-76
2024/03/27 01:13:17;;;;;;;2.97;0.90;;;10.40;99.90;;;;;;6136733;23;20008;-76
2024/03/27 01:15:50;;;;;;;2.17;0.73;;;10.40;99.90;;;;;;6087166;23;20009;-76
2024/03/27 01:18:17;;;;;;;2.95;1.50;;;10.30;99.90;;;;;;6090128;23;20009;-76
2024/03/27 01:20:45;;;;;;;2.33;1.20;;;10.20;99.90;;;;;;6110304;23;20512;-76
2024/03/27 01:23:12;;;;;;;2.55;0.98;;;10.10;99.90;;;;;;6112722;23;20017;-76
2024/03/27 01:25:39;;;;;;;3.08;0.98;;;10.10;99.90;;;;;;6124626;23;20584;-76
2024/03/27 01:28:06;;;;;;;2.97;0.90;;;10.00;99.90;;;;;;6113877;23;20402;-76
2024/03/27 01:30:33;;;;;;;3.05;1.00;;;10.00;99.90;;;;;;6149982;23;20301;-76
2024/03/27 01:32:59;;;;;;;2.20;1.15;;;9.90;99.90;;;;;;6148866;23;20005;-76
2024/03/27 01:35:26;;;;;;;2.25;0.85;;;9.90;99.90;;;;;;6149078;23;20440;-76
2024/03/27 01:37:53;;;;;;;2.35;1.08;;;9.90;99.90;;;;;;6139852;23;20009;-76
2024/03/27 01:40:19;;;;;;;2.97;1.23;;;9.90;99.90;;;;;;6149415;23;20009;-76
2024/03/27 01:42:45;;;;;;;2.03;1.10;;;9.90;99.90;;;;;;6148190;23;20005;-76
2024/03/27 01:45:13;;;;;;;3.22;1.33;;;9.90;99.90;;;;;;6174076;23;20001;-76
2024/03/27 01:47:41;;;;;;;2.28;1.20;;;9.90;99.90;;;;;;6138137;23;20508;-76
2024/03/27 01:50:11;;;;;;;2.50;1.52;;;9.90;99.90;;;;;;6174488;23;20329;-76
2024/03/27 01:52:39;;;;;;;2.45;1.10;;;9.80;99.90;;;;;;6112918;23;20005;-76
2024/03/27 01:55:07;;;;;;;1.90;1.08;;;9.80;99.90;;;;;;6135970;23;20225;-76
2024/03/27 01:57:36;;;;;;;2.05;1.05;;;9.90;99.90;;;;;;6113874;23;20012;-76
2024/03/27 02:00:04;;;;;;;2.50;1.20;;;9.80;99.90;;;;;;6089644;23;20013;-76
2024/03/27 02:02:40;;;;;;;2.42;1.10;;;9.80;99.90;;;;;;6138767;23;20430;-76
2024/03/27 02:05:10;;;;;;;1.95;1.15;;;9.80;99.90;;;;;;6089121;23;20005;-76
2024/03/27 02:07:41;;;;;;;2.60;1.00;;;9.80;99.90;;;;;;6148628;23;20001;-76
2024/03/27 02:10:08;;;;;;;3.40;1.33;;;9.80;99.90;;;;;;6113835;23;20013;-76
2024/03/27 02:12:35;;;;;;;2.40;1.25;;;9.80;99.90;;;;;;6113758;23;20036;-76
2024/03/27 02:15:06;;;;;;;2.65;1.00;;;9.80;99.90;;;;;;6137144;23;20025;-76
2024/03/27 02:17:32;;;;;;;4.47;1.30;;;9.80;99.90;;;;;;6089773;23;20031;-76
2024/03/27 02:19:59;;;;;;;1.67;1.00;;;9.70;99.90;;;;;;6175978;23;20004;-75
2024/03/27 02:22:26;;;;;;;1.98;0.90;;;9.70;99.90;;;;;;6149203;23;20001;-75
2024/03/27 02:25:18;;;;;;;1.60;0.80;;;9.70;99.90;;;;;;6137104;23;20501;-76
2024/03/27 02:27:45;;;;;;;3.17;1.13;;;9.70;99.90;;;;;;6148156;23;20422;-76
2024/03/27 02:30:11;;;;;;;2.30;0.98;;;9.70;99.90;;;;;;6113971;23;20833;-76
2024/03/27 02:32:37;;;;;;;3.78;1.05;;;9.70;99.90;;;;;;6114176;23;20326;-76
2024/03/27 02:35:04;;;;;;;2.65;0.93;;;9.70;99.90;;;;;;6148169;23;20012;-75
2024/03/27 02:37:31;;;;;;;3.25;1.17;;;9.70;99.90;;;;;;6090734;23;20005;-75
2024/03/27 02:39:57;;;;;;;4.47;1.88;;;9.70;99.90;;;;;;6114599;23;20005;-75
2024/03/27 02:42:24;;;;;;;2.75;1.10;;;9.60;99.90;;;;;;6114419;23;20342;-76
2024/03/27 02:44:50;;;;;;;5.85;1.50;;;9.60;99.90;;;;;;6148261;23;20246;-75
2024/03/27 02:47:16;;;;;;;3.00;2.03;;;9.60;99.90;;;;;;6147813;23;20006;-75
2024/03/27 02:49:43;;;;;;;3.17;1.58;;;9.60;99.90;;;;;;6089863;23;20017;-76
2024/03/27 02:52:09;;;;;;;3.47;1.58;;;9.60;99.90;;;;;;6138394;23;20008;-75
2024/03/27 02:54:35;;;;;;;2.60;1.40;;;9.60;99.90;;;;;;6150349;23;20426;-75
2024/03/27 02:57:02;;;;;;;2.70;1.40;;;9.50;99.90;;;;;;6115231;23;20015;-76
2024/03/27 02:59:28;;;;;;;3.10;1.42;;;9.50;99.90;;;;;;6150568;23;20318;-76
2024/03/27 03:01:54;;;;;;;5.40;2.45;;;9.50;99.90;;;;;;6174316;23;20012;-76
2024/03/27 03:04:21;;;;;;;6.55;1.70;;;9.50;99.90;;;;;;6149340;23;19997;-76
2024/03/27 03:06:48;;;;;;;3.53;1.55;;;9.40;99.90;;;;;;6148922;23;20001;-76
2024/03/27 03:09:14;;;;;;;3.25;1.38;;;9.40;99.90;;;;;;6126154;23;20307;-76
2024/03/27 03:11:40;;;;;;;1.58;1.00;;;9.30;99.90;;;;;;6116070;23;20318;-75
2024/03/27 03:14:06;;;;;;;1.80;1.00;;;9.30;99.90;;;;;;6114987;23;20330;-75
2024/03/27 03:16:33;;;;;;;2.80;1.17;;;9.30;99.90;;;;;;6138744;23;20004;-76
2024/03/27 03:18:59;;;;;;;4.88;1.13;;;9.30;99.90;;;;;;6176068;23;20317;-75
2024/03/27 03:21:26;;;;;;;2.92;1.30;;;9.30;99.90;;;;;;6124369;23;20184;-75
2024/03/27 03:23:52;;;;;;;3.65;1.40;;;9.30;99.90;;;;;;6139316;23;20520;-76
2024/03/27 03:26:18;;;;;;;3.40;1.45;;;9.30;99.90;;;;;;6113848;23;20008;-75
2024/03/27 03:28:45;;;;;;;4.28;1.48;;;9.30;99.90;;;;;;6176790;23;19997;-76
2024/03/27 03:31:16;;;;;;;2.55;1.45;;;9.30;99.90;;;;;;6115592;23;20012;-76
2024/03/27 03:33:43;;;;;;;2.45;1.10;;;9.30;99.90;;;;;;6150177;23;20024;-76
2024/03/27 03:36:11;;;;;;;4.55;1.45;;;9.40;99.90;;;;;;6148974;23;20378;-75
2024/03/27 03:38:37;;;;;;;8.52;2.55;;;9.40;99.90;;;;;;6175549;23;20013;-75
2024/03/27 03:41:05;;;;;;;4.55;2.10;;;9.40;99.90;;;;;;6177500;23;20009;-76
2024/03/27 03:43:32;;;;;;;4.85;1.67;;;9.40;99.90;;;;;;6176013;23;20004;-76
2024/03/27 03:45:58;;;;;;;2.42;1.33;;;9.40;99.90;;;;;;6149556;23;20005;-76
2024/03/27 03:48:24;;;;;;;2.67;1.98;;;9.40;99.90;;;;;;6150222;23;20008;-76
2024/03/27 03:50:51;;;;;;;2.30;1.17;;;9.40;99.90;;;;;;6115762;23;20013;-76
2024/03/27 03:53:17;;;;;;;4.28;1.80;;;9.40;99.90;;;;;;6149571;23;19993;-76
2024/03/27 03:55:43;;;;;;;3.20;1.63;;;9.40;99.90;;;;;;6176725;23;20008;-75
2024/03/27 03:58:12;;;;;;;3.17;1.58;;;9.40;99.90;;;;;;6149896;23;19997;-76
2024/03/27 04:00:39;;;;;;;2.85;1.35;;;9.50;99.90;;;;;;6116132;23;20009;-76
2024/03/27 04:03:05;;;;;;;4.00;1.73;;;9.50;99.90;;;;;;6138980;23;20009;-76
2024/03/27 04:05:32;;;;;;;4.78;1.52;;;9.50;99.90;;;;;;6138767;23;20012;-75
2024/03/27 04:07:58;;;;;;;3.15;1.15;;;9.50;99.90;;;;;;6175404;23;20001;-76
2024/03/27 04:10:25;;;;;;;2.50;1.30;;;9.50;99.90;;;;;;6149584;23;20005;-76
2024/03/27 04:12:51;;;;;;;2.20;1.08;;;9.50;99.90;;;;;;6113432;23;20028;-76
2024/03/27 04:15:17;;;;;;;2.70;1.27;;;9.60;99.90;;;;;;6149339;23;20012;-76
2024/03/27 04:17:43;;;;;;;3.30;1.05;;;9.60;99.90;;;;;;6149557;23;20012;-75
2024/03/27 04:20:10;;;;;;;3.92;1.30;;;9.60;99.90;;;;;;6125335;23;20318;-76
2024/03/27 04:22:37;;;;;;;2.45;1.00;;;9.60;99.90;;;;;;6114817;23;20009;-75
2024/03/27 04:25:04;;;;;;;2.63;1.20;;;9.60;99.90;;;;;;6148819;23;20008;-76
2024/03/27 04:27:31;;;;;;;2.90;1.00;;;9.60;99.90;;;;;;6138792;23;20005;-75
2024/03/27 04:29:58;;;;;;;2.70;1.23;;;9.60;99.90;;;;;;6150065;23;20020;-76
2024/03/27 04:32:24;;;;;;;2.95;1.60;;;9.60;99.90;;;;;;6149829;23;20009;-76
2024/03/27 04:34:51;;;;;;;3.92;1.35;;;9.60;99.90;;;;;;6139535;23;20378;-76
2024/03/27 04:37:18;;;;;;;2.30;0.90;;;9.60;99.90;;;;;;6114533;23;20346;-76
2024/03/27 04:39:44;;;;;;;3.25;1.27;;;9.60;99.90;;;;;;6139914;23;20429;-78
2024/03/27 04:42:10;;;;;;;4.93;1.38;;;9.60;99.90;;;;;;6175969;23;19997;-78
2024/03/27 04:44:40;;;;;;;3.17;1.20;;;9.60;99.90;;;;;;6113638;23;20001;-76
2024/03/27 04:47:06;;;;;;;4.05;1.33;;;9.60;99.90;;;;;;6148325;23;20421;-76
2024/03/27 04:49:32;;;;;;;2.70;0.98;;;9.50;99.90;;;;;;6149383;23;20364;-76
2024/03/27 04:51:58;;;;;;;3.00;1.23;;;9.50;99.90;;;;;;6175434;23;20005;-75
2024/03/27 04:54:25;;;;;;;2.88;1.00;;;9.50;99.90;;;;;;6123789;23;20001;-75
2024/03/27 04:56:51;;;;;;;2.70;1.25;;;9.50;99.90;;;;;;6089873;23;20334;-75
2024/03/27 04:59:18;;;;;;;5.63;1.65;;;9.50;99.90;;;;;;6114870;23;20005;-75
2024/03/27 05:01:44;;;;;;;4.32;1.23;;;9.50;99.90;;;;;;6114848;23;20020;-75
2024/03/27 05:04:10;;;;;;;2.63;1.30;;;9.50;99.90;;;;;;6140033;23;20009;-75
2024/03/27 05:06:41;;;;;;;2.42;1.05;;;9.50;99.90;;;;;;6114518;23;20365;-75
2024/03/27 05:09:10;;;;;;;2.60;1.00;;;9.50;99.90;;;;;;6088357;23;20005;-75
2024/03/27 05:11:38;;;;;;;3.40;1.63;;;9.50;99.90;;;;;;6148566;23;19997;-76
2024/03/27 05:14:05;;;;;;;2.80;1.23;;;9.50;99.90;;;;;;6114641;23;20024;-76
2024/03/27 05:16:32;;;;;;;3.63;1.10;;;9.40;99.90;;;;;;6137215;23;20317;-75
2024/03/27 05:18:59;;;;;;;2.20;0.80;;;9.40;99.90;;;;;;6126113;23;20008;-75
2024/03/27 05:21:27;;;;;;;3.65;1.17;;;9.40;99.90;;;;;;6124688;23;20024;-75
2024/03/27 05:23:53;;;;;;;3.30;1.10;;;9.40;99.90;;;;;;6115066;23;20005;-76
2024/03/27 05:26:19;;;;;;;3.90;1.33;;;9.40;99.90;;;;;;6114557;23;20012;-75
2024/03/27 05:28:46;;;;;;;2.83;1.02;;;9.40;99.90;;;;;;6149079;23;20001;-76
2024/03/27 05:31:12;;;;;;;2.90;1.23;;;9.40;99.90;;;;;;6114727;23;20020;-76
2024/03/27 05:33:38;;;;;;;3.28;1.30;;;9.40;99.90;;;;;;6148554;23;20012;-76
2024/03/27 05:36:05;;;;;;;3.97;0.98;;;9.40;99.90;;;;;;6125052;23;20001;-75
2024/03/27 05:38:31;;;;;;;2.22;1.20;;;9.50;99.90;;;;;;6175209;23;20008;-76
2024/03/27 05:40:58;;;;;;;3.05;1.33;;;9.50;99.90;;;;;;6114130;23;20031;-76
2024/03/27 05:43:24;;;;;;;2.88;1.23;;;9.60;99.90;;;;;;6175922;23;20001;-75
2024/03/27 05:45:52;;;;;;;2.25;1.02;;;9.60;99.90;;;;;;6149481;23;20413;-76
2024/03/27 05:48:18;;;;;;;2.88;0.90;;;9.70;99.90;;;;;;6112817;23;20001;-76
2024/03/27 05:50:44;;;;;;;4.05;1.70;;;9.70;99.90;;;;;;6173169;23;20020;-76
2024/03/27 05:53:11;;;;;;;3.92;1.30;;;9.80;99.90;;;;;;6113148;23;20005;-76
2024/03/27 05:55:38;;;;;;;3.22;1.10;;;9.80;99.90;;;;;;6174868;23;20008;-76
2024/03/27 05:58:04;;;;;;;2.50;0.80;;;9.90;99.90;;;;;;6146722;23;20080;-75
2024/03/27 06:00:30;;;;;;;2.47;1.10;;;9.90;99.90;;;;;;6113256;23;20005;-76
2024/03/27 06:02:56;;;;;;;2.60;1.02;;;10.00;99.90;;;;;;6138880;23;20016;-76
2024/03/27 06:05:23;;;;;;;3.33;1.10;;;10.00;99.90;;;;;;6150174;23;20001;-76
2024/03/27 06:07:49;;;;;;;3.00;1.00;;;10.10;99.90;;;;;;6149396;23;20584;-76
2024/03/27 06:10:15;;;;;;;2.55;0.90;;;10.10;99.90;;;;;;6114421;23;20013;-76
2024/03/27 06:12:42;;;;;;;2.10;1.20;;;10.10;99.90;;;;;;6174338;23;20005;-76
2024/03/27 06:15:08;;;;;;;1.27;0.70;;;10.20;99.90;;;;;;6137445;23;20551;-76
2024/03/27 06:17:35;;;;;;;3.05;1.33;;;10.20;99.90;;;;;;6149411;23;20409;-75
2024/03/27 06:20:01;;;;;;;2.70;1.27;;;10.30;99.90;;;;;;6114475;23;20354;-76
2024/03/27 06:22:27;;;;;;;3.30;1.40;;;10.30;99.90;;;;;;6114492;23;20009;-76
2024/03/27 06:24:54;;;;;;;1.50;1.08;;;10.30;99.90;;;;;;6174489;23;20001;-76
2024/03/27 06:27:20;;;;;;;1.65;0.98;;;10.30;99.90;;;;;;6114289;23;20397;-75
2024/03/27 06:29:46;;;;;;;1.40;1.00;;;10.40;99.90;;;;;;6120190;23;20013;-76
2024/03/27 06:32:13;;;;;;;1.60;0.80;;;10.40;99.90;;;;;;6137014;23;20341;-75
2024/03/27 06:34:39;;;;;;;2.15;1.08;;;10.40;99.90;;;;;;6173892;23;20378;-76
2024/03/27 06:37:07;;;;;;;1.50;0.77;;;10.40;99.90;;;;;;6147587;23;20004;-76
2024/03/27 06:39:33;;;;;;;1.90;1.15;;;10.40;99.90;;;;;;6176516;23;20009;-76
2024/03/27 06:42:00;;;;;;;1.35;1.00;;;10.40;99.90;;;;;;6147843;23;20005;-76
2024/03/27 06:44:26;;;;;;;2.42;1.00;;;10.50;99.90;;;;;;6148729;23;20012;-75
2024/03/27 06:46:53;;;;;;;2.00;1.05;;;10.50;99.90;;;;;;6089934;23;20009;-76
2024/03/27 06:49:21;;;;;;;2.85;1.23;;;10.50;99.90;;;;;;6124985;23;20004;-76
2024/03/27 06:51:49;;;;;;;3.83;1.55;;;10.50;99.90;;;;;;6123761;23;20001;-76
2024/03/27 06:54:16;;;;;;;2.55;2.22;;;10.50;99.90;;;;;;6123274;23;20008;-76
2024/03/27 06:56:44;;;;;;;3.30;2.90;;;10.50;99.90;;;;;;6148421;23;20069;-76
2024/03/27 06:59:10;;;;;;;4.55;3.88;;;10.50;99.90;;;;;;6115388;23;20326;-76
2024/03/27 07:01:36;;;;;;;4.53;4.13;;;10.50;99.90;;;;;;6090070;23;20005;-76
2024/03/27 07:04:03;;;;;;;3.45;3.13;;;10.50;99.90;;;;;;6147841;23;20027;-76
2024/03/27 07:06:29;;;;;;;3.00;2.70;;;10.50;99.90;;;;;;6112144;23;20012;-76
2024/03/27 07:08:56;;;;;;;5.40;3.30;;;10.50;99.90;;;;;;6175042;23;20309;-75
2024/03/27 07:11:22;;;;;;;3.97;3.58;;;10.40;99.90;;;;;;6149056;23;20263;-76
2024/03/27 07:13:48;;;;;;;4.55;3.60;;;10.40;99.90;;;;;;6113339;23;20013;-75
2024/03/27 07:16:15;;;;;;;4.80;4.15;;;10.40;99.90;;;;;;6114149;23;20005;-76
2024/03/27 07:18:41;;;;;;;5.65;5.05;;;10.40;99.90;;;;;;6148662;23;20092;-76
2024/03/27 07:21:07;;;;;;;7.15;5.13;;;10.40;99.90;;;;;;6174683;23;20500;-77
2024/03/27 07:23:33;;;;;;;9.30;6.75;;;10.30;99.90;;;;;;6089857;23;20009;-77
2024/03/27 07:26:07;;;;;;;9.02;7.03;;;10.30;99.90;;;;;;6137791;23;20511;-76
2024/03/27 07:28:33;;;;;;;8.73;7.82;;;10.30;99.90;;;;;;6124139;23;20012;-76
2024/03/27 07:31:00;;;;;;;8.45;7.57;;;10.30;99.90;;;;;;6113927;23;20013;-76
2024/03/27 07:33:27;;;;;;;8.60;7.80;;;10.20;99.90;;;;;;6148166;23;20569;-77
2024/03/27 07:35:54;;;;;;;8.88;7.53;;;10.20;99.90;;;;;;6113395;23;20028;-76
2024/03/27 07:38:20;;;;;;;8.88;7.97;;;10.10;99.90;;;;;;6114140;23;20306;-76
2024/03/27 07:40:47;;;;;;;11.63;8.98;;;10.10;99.90;;;;;;6176535;23;20422;-76
2024/03/27 07:43:13;;;;;;;9.35;8.10;;;10.10;99.90;;;;;;6136960;23;20009;-76
2024/03/27 07:45:40;;;;;;;9.88;8.93;;;10.00;99.90;;;;;;6176033;23;20343;-78
2024/03/27 07:48:07;;;;;;;9.18;8.27;;;9.90;99.90;;;;;;6116322;23;20005;-80
2024/03/27 07:50:33;;;;;;;14.95;11.70;;;9.90;99.90;;;;;;6112858;23;20013;-77
2024/03/27 07:52:59;;;;;;;17.25;13.40;;;9.90;99.90;;;;;;6110573;23;20032;-76
2024/03/27 07:55:26;;;;;;;14.02;11.27;;;9.80;99.90;;;;;;6113191;23;20426;-76
2024/03/27 07:57:52;;;;;;;13.80;12.18;;;9.80;99.90;;;;;;6089772;23;20001;-76
2024/03/27 08:00:19;;;;;;;12.88;11.57;;;9.70;99.90;;;;;;6138597;23;20005;-80
2024/03/27 08:02:45;;;;;;;13.40;10.82;;;9.70;99.90;;;;;;6112308;23;20013;-77
2024/03/27 08:05:11;;;;;;;11.90;10.60;;;9.60;99.90;;;;;;6147070;23;20001;-77
2024/03/27 08:07:38;;;;;;;9.50;8.50;;;9.60;99.90;;;;;;6112552;23;20013;-77
2024/03/27 08:10:05;;;;;;;12.70;11.40;;;9.50;99.90;;;;;;6137892;23;20020;-77
2024/03/27 08:12:31;;;;;;;11.85;10.15;;;9.50;99.90;;;;;;6147045;23;20005;-79
2024/03/27 08:14:58;;;;;;;11.10;9.48;;;9.50;99.90;;;;;;6088396;23;20013;-79
2024/03/27 08:17:24;;;;;;;10.50;9.02;;;9.50;99.90;;;;;;6148305;23;20422;-79
2024/03/27 08:19:51;;;;;;;9.25;8.10;;;9.50;99.90;;;;;;6111506;23;20005;-80
2024/03/27 08:22:17;;;;;;;12.98;9.85;;;9.40;99.90;;;;;;6150481;23;20008;-80
2024/03/27 08:24:44;;;;;;;7.97;7.07;;;9.40;99.90;;;;;;6178312;23;20108;-81
2024/03/27 08:27:10;;;;;;;9.60;7.45;;;9.50;99.90;;;;;;6140250;23;20330;-81
2024/03/27 08:29:36;;;;;;;8.35;7.47;;;9.50;99.90;;;;;;6116547;23;20008;-79
2024/03/27 08:32:03;;;;;;;11.68;9.85;;;9.40;99.90;;;;;;6090217;23;20009;-80
2024/03/27 08:34:30;;;;;;;11.93;10.43;;;9.40;99.90;;;;;;6114429;23;20412;-79
2024/03/27 08:36:56;;;;;;;12.30;10.02;;;9.50;99.90;;;;;;6149456;23;20005;-78
2024/03/27 08:39:23;;;;;;;12.63;10.45;;;9.40;99.90;;;;;;6139508;23;20024;-82
2024/03/27 08:41:49;;;;;;;11.27;9.63;;;9.50;99.90;;;;;;6176689;23;20283;-78
2024/03/27 08:44:16;;;;;;;11.23;10.13;;;9.50;99.90;;;;;;6150670;23;20005;-79
2024/03/27 08:46:43;;;;;;;11.48;10.35;;;9.50;99.90;;;;;;6139789;23;20714;-82
2024/03/27 08:49:13;;;;;;;17.80;13.45;;;9.60;99.90;;;;;;6115701;23;20460;-83
2024/03/27 08:51:40;;;;;;;13.88;11.63;;;9.70;99.90;;;;;;6115495;23;20013;-81
2024/03/27 08:54:06;;;;;;;13.90;12.15;;;9.80;99.90;;;;;;6139953;23;20009;-82
2024/03/27 08:56:33;;;;;;;14.07;12.57;;;9.80;99.90;;;;;;6124454;23;19993;-79
2024/03/27 08:58:59;;;;;;;18.08;16.05;;;9.90;99.90;;;;;;6092018;23;20009;-78
2024/03/27 09:01:25;;;;;;;15.82;14.23;;;10.00;99.90;;;;;;6149749;23;20028;-80
2024/03/27 09:03:52;;;;;;;14.52;13.00;;;10.10;99.90;;;;;;6113220;23;20009;-80
2024/03/27 09:06:18;;;;;;;13.93;12.40;;;10.10;99.90;;;;;;6148635;23;20027;-79
2024/03/27 09:08:44;;;;;;;18.50;16.60;;;10.20;99.90;;;;;;6138712;23;20483;-80
2024/03/27 09:11:11;;;;;;;15.05;13.55;;;10.30;99.90;;;;;;6114746;23;20342;-84
2024/03/27 09:13:41;;;;;;;18.63;16.73;;;10.30;99.90;;;;;;6171994;23;20047;-82
2024/03/27 09:16:08;;;;;;;15.27;13.77;;;10.40;99.90;;;;;;6088744;23;20017;-80
2024/03/27 09:18:35;;;;;;;16.15;13.82;;;10.40;99.90;;;;;;6148476;23;20012;-87
2024/03/27 09:21:01;;;;;;;15.73;13.88;;;10.50;99.90;;;;;;6085610;23;20450;-84
2024/03/27 09:23:29;;;;;;;13.75;12.35;;;10.60;99.90;;;;;;6146826;23;20311;-83
2024/03/27 09:25:57;;;;;;;15.38;13.80;;;10.60;99.90;;;;;;6110767;23;20016;-84
2024/03/27 09:28:24;;;;;;;18.48;15.43;;;10.70;99.90;;;;;;6144917;23;20441;-80
2024/03/27 09:30:50;;;;;;;14.90;13.35;;;10.70;99.90;;;;;;6173208;23;20013;-81
2024/03/27 09:33:17;;;;;;;13.85;12.20;;;10.70;99.90;;;;;;6112920;23;20069;-82
2024/03/27 09:35:46;;;;;;;14.50;13.00;;;10.70;99.90;;;;;;6173506;23;20001;-85
2024/03/27 09:38:13;;;;;;;14.93;13.43;;;10.70;99.90;;;;;;6136898;23;20441;-85
2024/03/27 09:40:57;;;;;;;13.48;12.02;;;10.60;99.90;;;;;;6112506;23;20063;-84
2024/03/27 09:43:24;;;;;;;16.80;13.90;;;10.70;99.90;;;;;;6124146;23;20338;-82
2024/03/27 09:45:52;;;;;;;13.85;12.40;;;10.60;99.90;;;;;;6124452;23;20015;-84
2024/03/27 09:48:20;;;;;;;14.63;12.82;;;10.60;99.90;;;;;;6114474;23;20016;-83
2024/03/27 09:50:46;;;;;;;13.45;12.10;;;10.70;99.90;;;;;;6148749;23;20017;-82
2024/03/27 09:53:15;;;;;;;13.13;11.82;;;10.80;99.90;;;;;;6135948;23;20009;-82
2024/03/27 09:55:41;;;;;;;12.75;11.45;;;10.80;99.90;;;;;;6164025;23;20009;-85
2024/03/27 09:58:12;;;;;;;13.73;12.25;;;10.90;99.90;;;;;;6088174;23;20012;-85
2024/03/27 10:00:39;;;;;;;15.35;13.75;;;11.00;99.90;;;;;;6113097;23;20363;-84
2024/03/27 10:03:06;;;;;;;16.08;14.38;;;11.00;99.90;;;;;;6165884;23;20016;-82
2024/03/27 10:05:33;;;;;;;16.02;14.38;;;11.20;99.90;;;;;;6114091;23;20009;-86
2024/03/27 10:07:59;;;;;;;16.67;13.93;;;11.10;99.90;;;;;;6122915;23;20005;-85
2024/03/27 10:10:26;;;;;;;15.13;13.57;;;11.10;99.90;;;;;;6137416;23;20021;-81
2024/03/27 10:12:53;;;;;;;14.95;12.00;;;11.10;99.90;;;;;;6143703;23;20005;-81
2024/03/27 10:15:19;;;;;;;13.38;11.98;;;11.10;99.90;;;;;;6148139;23;20009;-84
2024/03/27 10:17:45;;;;;;;13.43;11.70;;;11.10;99.90;;;;;;6137085;23;20044;-84
2024/03/27 10:20:12;;;;;;;11.70;10.40;;;11.10;99.90;;;;;;6139366;23;20013;-82
2024/03/27 10:22:39;;;;;;;13.95;12.50;;;11.10;99.90;;;;;;6176000;23;20024;-84
2024/03/27 10:25:09;;;;;;;13.80;11.10;;;11.10;99.90;;;;;;6146336;23;20008;-83
2024/03/27 10:27:38;;;;;;;12.32;11.02;;;11.00;99.90;;;;;;6149702;23;20473;-81
2024/03/27 10:30:07;;;;;;;12.05;10.25;;;11.00;99.90;;;;;;6137220;23;20005;-82
2024/03/27 10:32:33;;;;;;;12.73;10.40;;;11.10;99.90;;;;;;6123149;23;20330;-87
2024/03/27 10:35:00;;;;;;;11.45;9.52;;;11.10;99.90;;;;;;6113782;23;20409;-84
2024/03/27 10:37:28;;;;;;;12.38;9.93;;;11.10;99.90;;;;;;6115228;23;20013;-82
2024/03/27 10:39:58;;;;;;;8.25;7.45;;;11.00;99.90;;;;;;6114626;23;20020;-81
2024/03/27 10:42:26;;;;;;;6.78;5.95;;;10.90;99.90;;;;;;6148613;23;20473;-83
2024/03/27 10:44:57;;;;;;;6.72;5.97;;;10.90;99.90;;;;;;6149165;23;20024;-84
2024/03/27 10:47:33;;;;;;;8.15;6.72;;;10.90;99.90;;;;;;6149827;23;20016;-83
2024/03/27 10:50:02;;;;;;;7.28;5.60;;;10.80;99.90;;;;;;6137634;23;20434;-83
2024/03/27 10:52:29;;;;;;;6.93;5.50;;;10.80;99.90;;;;;;6146910;23;20061;-83
2024/03/27 10:54:56;;;;;;;7.65;5.95;;;10.80;99.90;;;;;;6091097;23;20013;-82
2024/03/27 10:57:23;;;;;;;11.43;6.63;;;10.80;99.90;;;;;;6115036;23;20013;-83
2024/03/27 10:59:51;;;;;;;6.65;5.10;;;10.80;99.90;;;;;;6115100;23;20441;-82
2024/03/27 11:02:21;;;;;;;9.23;5.10;;;10.90;99.90;;;;;;6114456;23;20473;-81
2024/03/27 11:04:54;;;;;;;6.00;5.15;;;10.90;99.90;;;;;;6114162;23;20009;-81
2024/03/27 11:07:21;;;;;;;5.93;4.57;;;10.90;99.90;;;;;;6149319;23;20016;-80
2024/03/27 11:09:53;;;;;;;6.97;5.07;;;10.90;99.90;;;;;;6113913;23;20012;-80
2024/03/27 11:12:24;;;;;;;9.18;6.15;;;10.90;99.90;;;;;;6088961;23;20017;-80
2024/03/27 11:14:52;;;;;;;6.60;5.13;;;11.00;99.90;;;;;;6113341;23;20020;-80
2024/03/27 11:17:26;;;;;;;7.53;6.13;;;11.00;99.90;;;;;;6176553;23;20001;-80
2024/03/27 11:19:59;;;;;;;8.57;6.10;;;11.00;99.90;;;;;;6093149;23;20012;-80
2024/03/27 11:22:26;;;;;;;7.35;5.93;;;11.10;99.90;;;;;;6157271;23;20012;-81
2024/03/27 11:24:52;;;;;;;6.43;4.85;;;11.10;99.90;;;;;;6185118;23;20005;-81
2024/03/27 11:27:26;;;;;;;8.18;5.43;;;11.10;99.90;;;;;;6123744;23;20017;-82
2024/03/27 11:30:00;;;;;;;8.93;5.15;;;11.10;99.90;;;;;;6124128;23;20434;-81
2024/03/27 11:32:37;;;;;;;7.10;4.80;;;11.10;99.90;;;;;;6159624;23;20028;-81
2024/03/27 11:35:04;;;;;;;8.27;5.82;;;11.10;99.90;;;;;;6099732;23;20001;-82
2024/03/27 11:37:31;;;;;;;8.90;5.43;;;11.10;99.90;;;;;;6099529;23;20469;-82
2024/03/27 11:39:57;;;;;;;9.75;7.07;;;11.10;99.90;;;;;;6158240;23;20009;-82
2024/03/27 11:42:24;;;;;;;8.50;5.43;;;11.10;99.90;;;;;;6123661;23;20016;-81
2024/03/27 11:44:50;;;;;;;6.32;4.95;;;11.10;99.90;;;;;;6184743;23;20012;-82
2024/03/27 11:47:17;;;;;;;6.47;5.15;;;11.10;99.90;;;;;;6123459;23;20017;-82
2024/03/27 11:49:45;;;;;;;8.70;4.97;;;11.00;99.90;;;;;;6185323;23;20009;-82
2024/03/27 11:52:12;;;;;;;5.80;4.00;;;11.00;99.90;;;;;;6184905;23;20017;-82
2024/03/27 11:54:39;;;;;;;6.30;3.95;;;11.00;99.90;;;;;;6134455;23;20005;-82
2024/03/27 11:57:06;;;;;;;6.82;4.47;;;11.00;99.90;;;;;;6147953;23;20005;-83
2024/03/27 11:59:32;;;;;;;8.00;5.20;;;11.00;99.90;;;;;;6159606;23;20001;-82
2024/03/27 12:02:02;;;;;;;6.15;4.60;;;11.10;99.90;;;;;;6101007;23;20021;-84
2024/03/27 12:04:29;;;;;;;6.60;3.90;;;11.20;99.90;;;;;;6124205;23;20346;-82
2024/03/27 12:06:56;;;;;;;5.78;4.03;;;11.30;99.90;;;;;;6099730;23;20020;-79
2024/03/27 12:09:23;;;;;;;6.90;5.00;;;11.20;99.90;;;;;;6124571;23;20226;-80
2024/03/27 12:11:52;;;;;;;5.65;4.78;;;11.20;99.90;;;;;;6124363;23;20017;-81
2024/03/27 12:14:19;;;;;;;5.90;3.45;;;11.20;99.90;;;;;;6125980;23;20009;-80
2024/03/27 12:16:45;;;;;;;4.30;3.03;;;11.20;99.90;;;;;;6123597;23;20009;-81
2024/03/27 12:19:12;;;;;;;3.47;3.00;;;11.30;99.90;;;;;;6099603;23;20437;-81
2024/03/27 12:21:39;;;;;;;4.97;3.67;;;11.40;99.90;;;;;;6148718;23;20005;-80
2024/03/27 12:24:06;;;;;;;5.00;3.35;;;11.60;99.90;;;;;;6134332;23;19997;-80
2024/03/27 12:26:32;;;;;;;5.78;3.58;;;11.70;99.90;;;;;;6157714;23;20449;-80
2024/03/27 12:28:58;;;;;;;5.78;4.53;;;11.70;99.90;;;;;;6184289;23;20005;-80
2024/03/27 12:31:27;;;;;;;5.43;4.85;;;11.80;99.90;;;;;;6123877;23;20017;-80
2024/03/27 12:33:57;;;;;;;4.88;3.95;;;11.80;99.90;;;;;;6132806;23;20001;-80
2024/03/27 12:36:26;;;;;;;4.25;2.75;;;11.70;99.90;;;;;;6158242;23;20012;-80
2024/03/27 12:38:52;;;;;;;2.97;2.55;;;11.70;99.90;;;;;;6100236;23;20013;-80
2024/03/27 12:41:19;;;;;;;5.18;3.10;;;11.70;99.90;;;;;;6134388;23;20338;-80
2024/03/27 12:43:45;;;;;;;4.72;3.15;;;11.80;99.90;;;;;;6183947;23;20005;-81
2024/03/27 12:46:11;;;;;;;4.90;2.90;;;11.90;99.90;;;;;;6123869;23;20013;-80
2024/03/27 12:48:37;;;;;;;4.03;2.78;;;12.00;99.90;;;;;;6157654;23;20334;-80